LVIRU SAZM-SABE
Flight info
| Callsign | LVIRU |
|---|---|
| Flight time | 0h 44m |
| Altitude | 24000 |
| Route | SAZM 13 PULP1C PULPA W31 TENIL TENI8Q SABE VANAR R13 |
| Aircraft | LJ35/L-S/C |
Departure
| Time | 2026-05-06 20:54 |
|---|---|
| Airport | Ástor Piazzola International Airport (SAZM) |
Arrival
| Time | 2026-05-06 21:38 |
|---|---|
| Airport | Aeroparque Jorge Newbery (SABE) |
| Time | Latitude | Longitude | Altitude | Speed | Heading |
|---|---|---|---|---|---|
| 2026-05-06 20:42 | -37.93420 | -57.57968 | 48 ft | 0 kts | 304° |
| 2026-05-06 20:45 | -37.93416 | -57.57975 | 48 ft | 5 kts | 304° |
| 2026-05-06 20:45 | -37.93365 | -57.58039 | 48 ft | 15 kts | 339° |
| 2026-05-06 20:46 | -37.93247 | -57.58049 | 48 ft | 12 kts | 20° |
| 2026-05-06 20:46 | -37.93185 | -57.58002 | 48 ft | 0 kts | 28° |
| 2026-05-06 20:52 | -37.93171 | -57.57992 | 48 ft | 9 kts | 32° |
| 2026-05-06 20:52 | -37.93083 | -57.58013 | 48 ft | 19 kts | 309° |
| 2026-05-06 20:52 | -37.92993 | -57.58192 | 46 ft | 29 kts | 297° |
| 2026-05-06 20:53 | -37.92940 | -57.58354 | 46 ft | 10 kts | 289° |
| 2026-05-06 20:53 | -37.92905 | -57.58350 | 46 ft | 4 kts | 81° |
| 2026-05-06 20:53 | -37.92908 | -57.58335 | 46 ft | 0 kts | 125° |
| 2026-05-06 20:53 | -37.92975 | -57.58204 | 46 ft | 62 kts | 120° |
| 2026-05-06 20:54 | -37.93415 | -57.57347 | 99 ft | 167 kts | 127° |
| 2026-05-06 20:54 | -37.94162 | -57.55797 | 626 ft | 236 kts | 121° |
| 2026-05-06 20:54 | -37.94950 | -57.53951 | 2379 ft | 239 kts | 104° |
| 2026-05-06 20:54 | -37.95098 | -57.51893 | 4064 ft | 236 kts | 75° |
| 2026-05-06 20:55 | -37.94366 | -57.50064 | 5668 ft | 237 kts | 45° |
| 2026-05-06 20:55 | -37.92961 | -57.48945 | 7037 ft | 246 kts | 14° |
| 2026-05-06 20:55 | -37.91243 | -57.48746 | 8469 ft | 251 kts | 356° |
| 2026-05-06 20:55 | -37.89468 | -57.48851 | 9879 ft | 262 kts | 354° |
| 2026-05-06 20:56 | -37.87496 | -57.48917 | 10031 ft | 293 kts | 357° |
| 2026-05-06 20:56 | -37.85397 | -57.48796 | 9951 ft | 316 kts | 359° |
| 2026-05-06 20:56 | -37.83136 | -57.48637 | 9871 ft | 341 kts | 359° |
| 2026-05-06 20:56 | -37.80692 | -57.48535 | 9795 ft | 355 kts | 358° |
| 2026-05-06 20:57 | -37.78254 | -57.48448 | 9775 ft | 345 kts | 358° |
| 2026-05-06 20:57 | -37.75886 | -57.48341 | 9765 ft | 337 kts | 358° |
| 2026-05-06 20:57 | -37.73566 | -57.48243 | 9762 ft | 328 kts | 356° |
| 2026-05-06 20:57 | -37.71313 | -57.48474 | 9760 ft | 319 kts | 348° |
| 2026-05-06 20:58 | -37.69252 | -57.48905 | 9749 ft | 288 kts | 346° |
| 2026-05-06 20:58 | -37.67259 | -57.49292 | 9751 ft | 301 kts | 348° |
| 2026-05-06 20:58 | -37.65175 | -57.49613 | 10856 ft | 299 kts | 348° |
| 2026-05-06 20:58 | -37.63089 | -57.49939 | 12023 ft | 304 kts | 347° |
| 2026-05-06 20:59 | -37.60985 | -57.50293 | 13383 ft | 307 kts | 347° |
| 2026-05-06 20:59 | -37.58841 | -57.50653 | 14367 ft | 314 kts | 347° |
| 2026-05-06 20:59 | -37.56651 | -57.51010 | 15393 ft | 318 kts | 347° |
| 2026-05-06 20:59 | -37.54435 | -57.51371 | 16395 ft | 323 kts | 346° |
| 2026-05-06 21:00 | -37.52216 | -57.51736 | 17381 ft | 328 kts | 346° |
| 2026-05-06 21:00 | -37.49924 | -57.52113 | 18307 ft | 334 kts | 346° |
| 2026-05-06 21:00 | -37.47608 | -57.52492 | 19179 ft | 338 kts | 346° |
| 2026-05-06 21:00 | -37.45260 | -57.52875 | 20056 ft | 342 kts | 346° |
| 2026-05-06 21:01 | -37.42889 | -57.53264 | 20932 ft | 346 kts | 347° |
| 2026-05-06 21:01 | -37.41295 | -57.53525 | 21513 ft | 349 kts | 347° |
| 2026-05-06 21:01 | -37.38873 | -57.53921 | 22376 ft | 353 kts | 347° |
| 2026-05-06 21:01 | -37.35585 | -57.54458 | 23473 ft | 359 kts | 347° |
| 2026-05-06 21:02 | -37.33939 | -57.54726 | 23946 ft | 361 kts | 347° |
| 2026-05-06 21:02 | -37.31431 | -57.55135 | 24625 ft | 367 kts | 347° |
| 2026-05-06 21:02 | -37.28828 | -57.55566 | 24703 ft | 388 kts | 347° |
| 2026-05-06 21:02 | -37.26113 | -57.56010 | 24710 ft | 401 kts | 347° |
| 2026-05-06 21:03 | -37.23293 | -57.56464 | 24717 ft | 414 kts | 348° |
| 2026-05-06 21:03 | -37.20392 | -57.56934 | 24718 ft | 425 kts | 348° |
| 2026-05-06 21:03 | -37.17464 | -57.57410 | 24719 ft | 434 kts | 348° |
| 2026-05-06 21:03 | -37.14447 | -57.57900 | 24722 ft | 440 kts | 348° |
| 2026-05-06 21:04 | -37.11398 | -57.58393 | 24718 ft | 442 kts | 348° |
| 2026-05-06 21:04 | -37.08342 | -57.58887 | 24717 ft | 442 kts | 348° |
| 2026-05-06 21:04 | -37.05291 | -57.59381 | 24718 ft | 442 kts | 348° |
| 2026-05-06 21:04 | -37.02241 | -57.59876 | 24718 ft | 442 kts | 348° |
| 2026-05-06 21:05 | -36.99187 | -57.60370 | 24717 ft | 442 kts | 348° |
| 2026-05-06 21:05 | -36.96138 | -57.60862 | 24716 ft | 442 kts | 348° |
| 2026-05-06 21:05 | -36.93092 | -57.61354 | 24716 ft | 442 kts | 348° |
| 2026-05-06 21:05 | -36.90037 | -57.61847 | 24716 ft | 442 kts | 348° |
| 2026-05-06 21:06 | -36.87027 | -57.62333 | 24713 ft | 442 kts | 348° |
| 2026-05-06 21:06 | -36.83977 | -57.62824 | 24711 ft | 442 kts | 348° |
| 2026-05-06 21:06 | -36.80927 | -57.63315 | 24712 ft | 442 kts | 348° |
| 2026-05-06 21:06 | -36.77865 | -57.63807 | 24711 ft | 442 kts | 348° |
| 2026-05-06 21:07 | -36.74813 | -57.64298 | 24708 ft | 442 kts | 348° |
| 2026-05-06 21:07 | -36.71757 | -57.64789 | 24706 ft | 443 kts | 348° |
| 2026-05-06 21:07 | -36.68702 | -57.65279 | 24708 ft | 443 kts | 348° |
| 2026-05-06 21:07 | -36.65639 | -57.65770 | 24705 ft | 443 kts | 348° |
| 2026-05-06 21:08 | -36.62575 | -57.66261 | 24707 ft | 443 kts | 348° |
| 2026-05-06 21:08 | -36.59513 | -57.66751 | 24706 ft | 443 kts | 348° |
| 2026-05-06 21:08 | -36.56446 | -57.67242 | 24703 ft | 443 kts | 348° |
| 2026-05-06 21:08 | -36.53412 | -57.67727 | 24702 ft | 443 kts | 348° |
| 2026-05-06 21:09 | -36.50360 | -57.68214 | 24699 ft | 443 kts | 348° |
| 2026-05-06 21:09 | -36.47299 | -57.68702 | 24698 ft | 443 kts | 348° |
| 2026-05-06 21:09 | -36.44224 | -57.69192 | 24700 ft | 443 kts | 348° |
| 2026-05-06 21:09 | -36.41193 | -57.69675 | 24700 ft | 443 kts | 348° |
| 2026-05-06 21:10 | -36.38140 | -57.70161 | 24701 ft | 443 kts | 348° |
| 2026-05-06 21:10 | -36.35097 | -57.70645 | 24705 ft | 442 kts | 348° |
| 2026-05-06 21:10 | -36.32029 | -57.71132 | 24702 ft | 442 kts | 348° |
| 2026-05-06 21:10 | -36.28979 | -57.71617 | 24703 ft | 442 kts | 348° |
| 2026-05-06 21:11 | -36.25927 | -57.72102 | 24703 ft | 441 kts | 349° |
| 2026-05-06 21:11 | -36.22880 | -57.72584 | 24706 ft | 441 kts | 349° |
| 2026-05-06 21:11 | -36.19836 | -57.73067 | 24707 ft | 441 kts | 349° |
| 2026-05-06 21:11 | -36.16834 | -57.73542 | 24708 ft | 440 kts | 349° |
| 2026-05-06 21:12 | -36.13797 | -57.74023 | 24709 ft | 440 kts | 349° |
| 2026-05-06 21:12 | -36.10756 | -57.74503 | 24708 ft | 440 kts | 349° |
| 2026-05-06 21:12 | -36.07711 | -57.74984 | 24709 ft | 440 kts | 349° |
| 2026-05-06 21:12 | -36.04674 | -57.75463 | 24699 ft | 440 kts | 349° |
| 2026-05-06 21:13 | -36.01645 | -57.75941 | 24703 ft | 440 kts | 349° |
| 2026-05-06 21:13 | -35.98603 | -57.76420 | 24701 ft | 439 kts | 349° |
| 2026-05-06 21:13 | -35.95565 | -57.76899 | 24696 ft | 439 kts | 348° |
| 2026-05-06 21:13 | -35.92535 | -57.77375 | 24698 ft | 439 kts | 348° |
| 2026-05-06 21:14 | -35.89550 | -57.78063 | 24701 ft | 434 kts | 339° |
| 2026-05-06 21:14 | -35.86842 | -57.79655 | 24703 ft | 429 kts | 327° |
| 2026-05-06 21:14 | -35.84388 | -57.81740 | 24703 ft | 428 kts | 322° |
| 2026-05-06 21:14 | -35.82049 | -57.83944 | 24697 ft | 428 kts | 321° |
| 2026-05-06 21:15 | -35.79624 | -57.86165 | 24692 ft | 428 kts | 323° |
| 2026-05-06 21:15 | -35.77130 | -57.88081 | 24701 ft | 429 kts | 328° |
| 2026-05-06 21:15 | -35.74519 | -57.89889 | 24695 ft | 429 kts | 328° |
| 2026-05-06 21:15 | -35.71972 | -57.91796 | 24701 ft | 428 kts | 325° |
| 2026-05-06 21:16 | -35.69478 | -57.93809 | 24701 ft | 428 kts | 325° |
| 2026-05-06 21:16 | -35.66961 | -57.95774 | 24698 ft | 428 kts | 326° |
| 2026-05-06 21:16 | -35.64414 | -57.97672 | 24698 ft | 428 kts | 327° |
| 2026-05-06 21:16 | -35.61875 | -57.99585 | 24693 ft | 427 kts | 326° |
| 2026-05-06 21:17 | -35.59361 | -58.01529 | 24699 ft | 427 kts | 326° |
| 2026-05-06 21:17 | -35.56842 | -58.03469 | 24697 ft | 427 kts | 326° |
| 2026-05-06 21:17 | -35.54316 | -58.05384 | 24685 ft | 427 kts | 326° |
| 2026-05-06 21:17 | -35.51790 | -58.07300 | 24694 ft | 426 kts | 326° |
| 2026-05-06 21:18 | -35.49270 | -58.09222 | 24694 ft | 426 kts | 326° |
| 2026-05-06 21:18 | -35.46750 | -58.11145 | 24694 ft | 426 kts | 326° |
| 2026-05-06 21:18 | -35.44259 | -58.13038 | 24691 ft | 426 kts | 326° |
| 2026-05-06 21:18 | -35.41738 | -58.14950 | 24686 ft | 426 kts | 326° |
| 2026-05-06 21:19 | -35.39220 | -58.16862 | 24690 ft | 425 kts | 326° |
| 2026-05-06 21:19 | -35.36703 | -58.18774 | 24685 ft | 426 kts | 326° |
| 2026-05-06 21:19 | -35.34188 | -58.20681 | 24681 ft | 426 kts | 326° |
| 2026-05-06 21:19 | -35.31666 | -58.22590 | 24680 ft | 426 kts | 326° |
| 2026-05-06 21:20 | -35.29147 | -58.24496 | 24681 ft | 426 kts | 326° |
| 2026-05-06 21:20 | -35.26623 | -58.26406 | 24677 ft | 426 kts | 326° |
| 2026-05-06 21:20 | -35.24103 | -58.28311 | 24675 ft | 426 kts | 326° |
| 2026-05-06 21:20 | -35.21604 | -58.30196 | 24673 ft | 404 kts | 326° |
| 2026-05-06 21:21 | -35.19338 | -58.31897 | 24630 ft | 362 kts | 325° |
| 2026-05-06 21:21 | -35.17253 | -58.33468 | 23599 ft | 350 kts | 325° |
| 2026-05-06 21:21 | -35.15187 | -58.35040 | 22359 ft | 347 kts | 325° |
| 2026-05-06 21:21 | -35.13157 | -58.36571 | 21216 ft | 338 kts | 325° |
| 2026-05-06 21:22 | -35.11197 | -58.38041 | 20112 ft | 332 kts | 325° |
| 2026-05-06 21:22 | -35.09241 | -58.39512 | 19030 ft | 326 kts | 325° |
| 2026-05-06 21:22 | -35.07325 | -58.40955 | 17999 ft | 320 kts | 325° |
| 2026-05-06 21:22 | -35.05444 | -58.42370 | 16831 ft | 315 kts | 325° |
| 2026-05-06 21:23 | -35.03589 | -58.43763 | 15692 ft | 311 kts | 325° |
| 2026-05-06 21:23 | -35.01758 | -58.45138 | 14606 ft | 307 kts | 325° |
| 2026-05-06 21:23 | -34.99946 | -58.46497 | 13577 ft | 303 kts | 325° |
| 2026-05-06 21:23 | -34.98155 | -58.47841 | 12458 ft | 300 kts | 326° |
| 2026-05-06 21:24 | -34.96391 | -58.49164 | 11424 ft | 295 kts | 326° |
| 2026-05-06 21:24 | -34.94656 | -58.50464 | 10432 ft | 291 kts | 327° |
| 2026-05-06 21:24 | -34.92943 | -58.51747 | 9453 ft | 286 kts | 327° |
| 2026-05-06 21:24 | -34.91254 | -58.53011 | 8419 ft | 283 kts | 327° |
| 2026-05-06 21:25 | -34.89615 | -58.54236 | 7455 ft | 278 kts | 327° |
| 2026-05-06 21:25 | -34.87982 | -58.55457 | 6515 ft | 274 kts | 327° |
| 2026-05-06 21:25 | -34.86366 | -58.56667 | 5553 ft | 270 kts | 327° |
| 2026-05-06 21:25 | -34.84772 | -58.57859 | 4746 ft | 264 kts | 328° |
| 2026-05-06 21:26 | -34.83295 | -58.58959 | 4685 ft | 235 kts | 328° |
| 2026-05-06 21:26 | -34.81898 | -58.60001 | 4680 ft | 239 kts | 327° |
| 2026-05-06 21:26 | -34.80467 | -58.61072 | 4682 ft | 249 kts | 328° |
| 2026-05-06 21:26 | -34.78965 | -58.62193 | 4684 ft | 257 kts | 328° |
| 2026-05-06 21:27 | -34.77421 | -58.63343 | 4683 ft | 263 kts | 328° |
| 2026-05-06 21:27 | -34.75848 | -58.64514 | 4688 ft | 266 kts | 328° |
| 2026-05-06 21:27 | -34.74289 | -58.65676 | 4692 ft | 259 kts | 328° |
| 2026-05-06 21:27 | -34.72770 | -58.66807 | 4691 ft | 253 kts | 328° |
| 2026-05-06 21:28 | -34.71276 | -58.67919 | 4689 ft | 249 kts | 328° |
| 2026-05-06 21:28 | -34.69807 | -58.69011 | 4681 ft | 247 kts | 328° |
| 2026-05-06 21:28 | -34.68338 | -58.70104 | 4681 ft | 248 kts | 328° |
| 2026-05-06 21:28 | -34.66862 | -58.71201 | 4683 ft | 250 kts | 328° |
| 2026-05-06 21:29 | -34.65394 | -58.72291 | 4683 ft | 251 kts | 328° |
| 2026-05-06 21:29 | -34.63904 | -58.73399 | 4686 ft | 251 kts | 328° |
| 2026-05-06 21:29 | -34.62412 | -58.74506 | 4684 ft | 252 kts | 328° |
| 2026-05-06 21:29 | -34.60914 | -58.75617 | 4684 ft | 252 kts | 328° |
| 2026-05-06 21:30 | -34.59417 | -58.76727 | 4682 ft | 252 kts | 328° |
| 2026-05-06 21:30 | -34.57914 | -58.77840 | 4684 ft | 253 kts | 328° |
| 2026-05-06 21:30 | -34.56294 | -58.78670 | 4679 ft | 256 kts | 343° |
| 2026-05-06 21:30 | -34.54493 | -58.78749 | 4624 ft | 264 kts | 359° |
| 2026-05-06 21:31 | -34.52690 | -58.78505 | 4297 ft | 260 kts | 2° |
| 2026-05-06 21:31 | -34.50910 | -58.78251 | 3849 ft | 259 kts | 1° |
| 2026-05-06 21:31 | -34.49135 | -58.78054 | 3540 ft | 253 kts | 1° |
| 2026-05-06 21:31 | -34.47384 | -58.77874 | 3145 ft | 252 kts | 1° |
| 2026-05-06 21:32 | -34.45646 | -58.77685 | 2799 ft | 250 kts | 2° |
| 2026-05-06 21:32 | -34.42279 | -58.77018 | 2676 ft | 246 kts | 19° |
| 2026-05-06 21:32 | -34.40912 | -58.76027 | 2689 ft | 249 kts | 33° |
| 2026-05-06 21:33 | -34.39756 | -58.74451 | 2687 ft | 254 kts | 51° |
| 2026-05-06 21:33 | -34.39052 | -58.72456 | 2679 ft | 263 kts | 69° |
| 2026-05-06 21:33 | -34.38924 | -58.70208 | 2693 ft | 274 kts | 89° |
| 2026-05-06 21:33 | -34.39452 | -58.67976 | 2799 ft | 279 kts | 111° |
| 2026-05-06 21:34 | -34.40594 | -58.66068 | 2901 ft | 280 kts | 131° |
| 2026-05-06 21:34 | -34.41938 | -58.64409 | 2978 ft | 279 kts | 132° |
| 2026-05-06 21:34 | -34.43300 | -58.62727 | 2971 ft | 280 kts | 131° |
| 2026-05-06 21:34 | -34.44665 | -58.61026 | 2974 ft | 282 kts | 131° |
| 2026-05-06 21:35 | -34.46005 | -58.59296 | 2974 ft | 281 kts | 126° |
| 2026-05-06 21:35 | -34.47127 | -58.57358 | 2891 ft | 283 kts | 121° |
| 2026-05-06 21:35 | -34.48257 | -58.55332 | 2478 ft | 295 kts | 120° |
| 2026-05-06 21:35 | -34.49418 | -58.53247 | 2092 ft | 296 kts | 119° |
| 2026-05-06 21:36 | -34.50535 | -58.51255 | 1717 ft | 276 kts | 118° |
| 2026-05-06 21:36 | -34.51572 | -58.49377 | 1393 ft | 258 kts | 118° |
| 2026-05-06 21:36 | -34.52511 | -58.47705 | 1069 ft | 211 kts | 120° |
| 2026-05-06 21:36 | -34.53229 | -58.46424 | 804 ft | 168 kts | 119° |
| 2026-05-06 21:37 | -34.53846 | -58.45305 | 650 ft | 148 kts | 121° |
| 2026-05-06 21:37 | -34.54426 | -58.44267 | 510 ft | 148 kts | 124° |
| 2026-05-06 21:37 | -34.54964 | -58.43298 | 233 ft | 139 kts | 127° |
| 2026-05-06 21:37 | -34.55500 | -58.42323 | 49 ft | 135 kts | 125° |
| 2026-05-06 21:38 | -34.55989 | -58.41457 | 20 ft | 110 kts | 124° |
| 2026-05-06 21:38 | -34.56325 | -58.40857 | 24 ft | 54 kts | 124° |
| 2026-05-06 21:38 | -34.56428 | -58.40694 | 19 ft | 16 kts | 169° |
| 2026-05-06 21:38 | -34.56476 | -58.40756 | 20 ft | 11 kts | 247° |
| 2026-05-06 21:39 | -34.56507 | -58.40839 | 22 ft | 10 kts | 244° |
| 2026-05-06 21:39 | -34.56515 | -58.40902 | 21 ft | 0 kts | 297° |
| 2026-05-06 21:39 | -34.56512 | -58.40904 | 21 ft | 2 kts | 329° |
| 2026-05-06 21:40 | -34.56489 | -58.40880 | 21 ft | 0 kts | 32° |
| 2026-05-06 21:40 | -34.56485 | -58.40877 | 21 ft | 0 kts | 33° |